createdAt,value
2023-03-11T00:01:49.195Z,95832.38
2023-03-11T00:03:36.158Z,95828.08
2023-03-11T00:05:20.189Z,95830.36
2023-03-11T00:07:03.967Z,95826.55
2023-03-11T00:08:43.060Z,95830.91
2023-03-11T00:10:22.156Z,95830.38
2023-03-11T00:11:54.180Z,95819.81
2023-03-11T00:13:46.188Z,95826.86
2023-03-11T00:15:30.214Z,95820.80
2023-03-11T00:17:15.958Z,95824.52
2023-03-11T00:19:01.598Z,95821.51
2023-03-11T00:20:33.939Z,95815.64
2023-03-11T00:22:06.169Z,95801.83
2023-03-11T00:23:59.184Z,95814.36
2023-03-11T00:25:24.647Z,95815.39
2023-03-11T00:27:13.527Z,95807.61
2023-03-11T00:29:06.176Z,95804.15
2023-03-11T00:30:38.357Z,95805.94
2023-03-11T00:32:17.797Z,95809.31
2023-03-11T00:33:50.095Z,95808.06
2023-03-11T00:35:29.139Z,95805.18
2023-03-11T00:37:12.916Z,95808.08
2023-03-11T00:38:33.466Z,95805.62
2023-03-11T00:40:19.648Z,95799.83
2023-03-11T00:44:11.914Z,95797.64
2023-03-11T00:45:34.532Z,95792.51
2023-03-11T00:47:15.757Z,95790.38
2023-03-11T00:51:10.055Z,95778.10
2023-03-11T00:52:38.174Z,95783.35
2023-03-11T00:54:21.617Z,95782.23
2023-03-11T00:56:05.349Z,95775.55
2023-03-11T00:57:45.241Z,95780.10
2023-03-11T00:59:19.725Z,95780.53
2023-03-11T01:01:14.196Z,95771.02
2023-03-11T01:03:06.877Z,95771.46
2023-03-11T01:04:50.507Z,95769.91
2023-03-11T01:06:44.738Z,95768.33
2023-03-11T01:08:38.186Z,95764.52
2023-03-11T01:10:22.043Z,95765.82
2023-03-11T01:12:05.701Z,95767.09
2023-03-11T01:13:37.349Z,95768.90
2023-03-11T01:15:11.852Z,95763.23
2023-03-11T01:17:05.162Z,95762.48
2023-03-11T01:18:48.867Z,95761.16
2023-03-11T01:20:32.761Z,95760.36
2023-03-11T01:21:58.482Z,95762.39
2023-03-11T01:23:28.936Z,95757.48
2023-03-11T01:25:08.654Z,95761.65
2023-03-11T01:26:42.492Z,95756.62
2023-03-11T01:28:12.840Z,95755.98
2023-03-11T01:29:33.484Z,95757.88
2023-03-11T01:31:14.235Z,95759.85
2023-03-11T01:32:57.977Z,95764.60
2023-03-11T01:34:51.149Z,95765.13
2023-03-11T01:36:30.630Z,95760.99
2023-03-11T01:38:14.178Z,95752.67
2023-03-11T01:39:58.127Z,95763.05
2023-03-11T01:41:32.766Z,95762.00
2023-03-11T01:43:17.379Z,95764.67
2023-03-11T01:44:56.812Z,95764.08
2023-03-11T01:46:40.630Z,95762.22
2023-03-11T01:48:01.046Z,95761.09
2023-03-11T01:49:32.953Z,95756.46
2023-03-11T01:51:02.806Z,95753.23
2023-03-11T01:52:32.054Z,95751.52
2023-03-11T01:54:11.910Z,95752.34
2023-03-11T01:55:46.451Z,95747.48
2023-03-11T01:57:18.691Z,95744.73
2023-03-11T01:58:51.618Z,95747.15
2023-03-11T02:00:20.282Z,95748.05
2023-03-11T02:02:04.573Z,95745.56
2023-03-11T02:03:32.194Z,95748.05
2023-03-11T02:05:15.987Z,95749.77
2023-03-11T02:06:55.475Z,95748.55
2023-03-11T02:08:39.006Z,95751.36
2023-03-11T02:10:22.769Z,95750.98
2023-03-11T02:11:55.169Z,95749.77
2023-03-11T02:13:38.093Z,95747.60
2023-03-11T02:15:00.998Z,95750.02
2023-03-11T02:16:44.609Z,95751.89
2023-03-11T02:18:29.483Z,95753.02
2023-03-11T02:20:01.846Z,95749.65
2023-03-11T02:21:34.282Z,95747.02
2023-03-11T02:23:18.995Z,95740.98
2023-03-11T02:24:52.180Z,95740.72
2023-03-11T02:26:35.731Z,95742.80
2023-03-11T02:28:19.416Z,95741.48
2023-03-11T02:29:58.724Z,95741.47
2023-03-11T02:31:30.688Z,95739.89
2023-03-11T02:32:51.640Z,95738.43
2023-03-11T02:34:16.220Z,95737.80
2023-03-11T02:35:50.673Z,95736.30
2023-03-11T02:37:22.739Z,95736.29
2023-03-11T02:39:04.018Z,95727.64
2023-03-11T02:40:32.247Z,95736.77
2023-03-11T02:42:15.881Z,95738.90
2023-03-11T02:44:05.686Z,95737.73
2023-03-11T02:45:30.938Z,95736.02
2023-03-11T02:46:59.253Z,95733.16
2023-03-11T02:48:42.895Z,95741.27
2023-03-11T02:50:17.524Z,95723.05
2023-03-11T02:52:01.418Z,95733.94
2023-03-11T02:53:31.213Z,95734.17
2023-03-11T02:55:15.260Z,95735.02
2023-03-11T02:56:52.590Z,95733.30
2023-03-11T02:58:26.650Z,95735.37
2023-03-11T03:00:07.537Z,95733.23
2023-03-11T03:01:59.489Z,95733.50
2023-03-11T03:03:33.992Z,95732.08
2023-03-11T03:05:08.255Z,95732.94
2023-03-11T03:07:01.169Z,95734.22
2023-03-11T03:08:44.673Z,95733.25
2023-03-11T03:10:19.059Z,95735.44
2023-03-11T03:12:00.886Z,95736.20
2023-03-11T03:13:37.113Z,95731.20
2023-03-11T03:15:20.832Z,95736.36
2023-03-11T03:17:05.332Z,95730.57
2023-03-11T03:18:41.439Z,95733.30
2023-03-11T03:20:10.926Z,95717.98
2023-03-11T03:21:41.207Z,95731.73
2023-03-11T03:23:15.944Z,95734.95
2023-03-11T03:24:51.036Z,95733.95
2023-03-11T03:26:13.769Z,95731.89
2023-03-11T03:27:47.217Z,95728.60
2023-03-11T03:29:30.723Z,95732.70
2023-03-11T03:31:11.937Z,95730.30
2023-03-11T03:32:47.281Z,95730.05
2023-03-11T03:34:12.341Z,95731.48
2023-03-11T03:35:51.840Z,95732.55
2023-03-11T03:37:38.638Z,95726.59
2023-03-11T03:39:11.086Z,95728.08
2023-03-11T03:40:45.815Z,95726.64
2023-03-11T03:42:29.314Z,95734.00
2023-03-11T03:44:13.020Z,95728.54
2023-03-11T03:45:47.472Z,95728.02
2023-03-11T03:47:19.510Z,95728.83
2023-03-11T03:49:03.465Z,95728.53
2023-03-11T03:50:35.147Z,95727.83
2023-03-11T03:52:09.263Z,95719.21
2023-03-11T03:53:53.128Z,95723.71
2023-03-11T03:55:27.400Z,95725.27
2023-03-11T03:56:50.806Z,95727.39
2023-03-11T03:58:34.612Z,95726.87
2023-03-11T04:00:21.610Z,95727.30
2023-03-11T04:02:02.340Z,95734.66
2023-03-11T04:03:41.489Z,95718.17
2023-03-11T04:05:28.285Z,95734.02
2023-03-11T04:07:03.711Z,95727.21
2023-03-11T04:08:42.767Z,95735.29
2023-03-11T04:10:34.840Z,95734.29
2023-03-11T04:12:18.898Z,95732.33
2023-03-11T04:13:51.562Z,95732.29
2023-03-11T04:15:35.406Z,95726.49
2023-03-11T04:17:07.644Z,95732.23
2023-03-11T04:18:45.131Z,95730.16
2023-03-11T04:20:19.993Z,95730.89
2023-03-11T04:21:53.395Z,95731.67
2023-03-11T04:23:26.298Z,95731.92
2023-03-11T04:24:48.226Z,95734.27
2023-03-11T04:26:10.818Z,95728.93
2023-03-11T04:27:46.127Z,95734.18
2023-03-11T04:29:29.913Z,95733.74
2023-03-11T04:31:13.849Z,95733.73
2023-03-11T04:32:45.979Z,95732.92
2023-03-11T04:34:25.921Z,95734.27
2023-03-11T04:35:58.635Z,95738.04
2023-03-11T04:37:33.012Z,95735.52
2023-03-11T04:39:16.524Z,95733.23
2023-03-11T04:41:01.174Z,95735.90
2023-03-11T04:42:35.190Z,95736.76
2023-03-11T04:44:19.322Z,95738.15
2023-03-11T04:45:56.354Z,95741.42
2023-03-11T04:47:35.264Z,95741.27
2023-03-11T04:49:08.139Z,95743.59
2023-03-11T04:50:31.907Z,95746.08
2023-03-11T04:52:06.482Z,95744.43
2023-03-11T04:53:50.030Z,95737.98
2023-03-11T04:55:21.601Z,95737.90
2023-03-11T04:57:06.589Z,95734.97
2023-03-11T04:58:55.515Z,95738.96
2023-03-11T05:00:25.765Z,95742.90
2023-03-11T05:02:12.480Z,95738.61
2023-03-11T05:03:58.816Z,95745.41
2023-03-11T05:05:38.701Z,95743.73
2023-03-11T05:07:23.750Z,95742.64
2023-03-11T05:08:59.057Z,95744.35
2023-03-11T05:10:39.038Z,95742.82
2023-03-11T05:12:23.203Z,95740.63
2023-03-11T05:14:08.432Z,95745.93
2023-03-11T05:15:42.843Z,95746.96
2023-03-11T05:17:26.546Z,95747.89
2023-03-11T05:19:16.692Z,95752.36
2023-03-11T05:20:42.226Z,95745.55
2023-03-11T05:22:26.022Z,95750.77
2023-03-11T05:23:47.049Z,95748.39
2023-03-11T05:25:34.921Z,95753.49
2023-03-11T05:27:19.135Z,95753.60
2023-03-11T05:28:55.833Z,95751.65
2023-03-11T05:30:39.877Z,95756.30
2023-03-11T05:32:23.736Z,95751.14
2023-03-11T05:33:52.131Z,95754.02
2023-03-11T05:35:45.221Z,95754.72
2023-03-11T05:37:17.510Z,95761.77
2023-03-11T05:39:02.008Z,95761.80
2023-03-11T05:40:36.846Z,95752.12
2023-03-11T05:42:08.948Z,95765.81
2023-03-11T05:44:02.268Z,95768.80
2023-03-11T05:45:42.153Z,95775.92
2023-03-11T05:47:25.702Z,95774.48
2023-03-11T05:49:09.698Z,95773.39
2023-03-11T05:50:53.950Z,95774.27
2023-03-11T05:52:34.887Z,95774.45
2023-03-11T05:54:26.007Z,95777.60
2023-03-11T05:56:06.169Z,95778.67
2023-03-11T05:57:58.203Z,95777.95
2023-03-11T05:59:33.403Z,95773.08
2023-03-11T06:01:09.737Z,95773.70
2023-03-11T06:03:03.218Z,95781.39
2023-03-11T06:04:35.438Z,95783.89
2023-03-11T06:06:22.912Z,95784.52
2023-03-11T06:08:06.851Z,95782.11
2023-03-11T06:09:41.633Z,95782.47
2023-03-11T06:11:07.282Z,95785.56
2023-03-11T06:12:48.091Z,95787.52
2023-03-11T06:14:38.049Z,95789.81
2023-03-11T06:16:22.192Z,95792.64
2023-03-11T06:18:12.210Z,95794.23
2023-03-11T06:19:43.062Z,95799.94
2023-03-11T06:21:26.481Z,95801.89
2023-03-11T06:22:49.519Z,95803.29
2023-03-11T06:24:23.586Z,95804.52
2023-03-11T06:25:55.895Z,95806.21
2023-03-11T06:27:31.214Z,95807.89
2023-03-11T06:29:10.886Z,95814.98
2023-03-11T06:30:54.504Z,95815.68
2023-03-11T06:32:28.812Z,95815.44
2023-03-11T06:33:59.601Z,95823.09
2023-03-11T06:35:52.204Z,95826.34
2023-03-11T06:37:24.306Z,95828.96
2023-03-11T06:39:08.368Z,95827.10
2023-03-11T06:40:55.893Z,95804.27
2023-03-11T06:42:39.613Z,95824.70
2023-03-11T06:44:14.925Z,95834.38
2023-03-11T06:45:49.186Z,95832.12
2023-03-11T06:47:21.915Z,95830.89
2023-03-11T06:48:54.077Z,95834.14
2023-03-11T06:50:38.174Z,95835.39
2023-03-11T06:52:12.602Z,95842.79
2023-03-11T06:53:44.547Z,95840.86
2023-03-11T06:55:28.411Z,95842.85
2023-03-11T06:57:00.619Z,95849.12
2023-03-11T06:58:39.717Z,95856.64
2023-03-11T07:00:24.025Z,95862.52
2023-03-11T07:02:11.347Z,95857.17
2023-03-11T07:03:51.196Z,95857.13
2023-03-11T07:05:35.758Z,95859.60
2023-03-11T07:07:17.296Z,95864.98
2023-03-11T07:09:05.000Z,95868.11
2023-03-11T07:10:49.246Z,95869.65
2023-03-11T07:12:22.867Z,95873.20
2023-03-11T07:14:02.666Z,95874.30
2023-03-11T07:15:45.215Z,95883.94
2023-03-11T07:17:39.245Z,95878.48
2023-03-11T07:19:24.465Z,95880.08
2023-03-11T07:21:08.153Z,95874.02
2023-03-11T07:22:31.626Z,95886.40
2023-03-11T07:24:16.317Z,95879.66
2023-03-11T07:26:09.087Z,95888.48
2023-03-11T07:27:56.141Z,95891.38
2023-03-11T07:29:39.287Z,95897.97
2023-03-11T07:31:11.708Z,95898.63
2023-03-11T07:32:34.113Z,95899.49
2023-03-11T07:34:10.540Z,95897.48
2023-03-11T07:35:50.092Z,95902.30
2023-03-11T07:37:24.565Z,95906.08
2023-03-11T07:39:06.141Z,95906.12
2023-03-11T07:40:33.373Z,95906.44
2023-03-11T07:42:12.697Z,95906.17
2023-03-11T07:43:45.692Z,95907.42
2023-03-11T07:45:24.461Z,95907.23
2023-03-11T07:47:08.707Z,95907.52
2023-03-11T07:48:37.839Z,95913.79
2023-03-11T07:50:21.497Z,95918.10
2023-03-11T07:52:03.298Z,95920.73
2023-03-11T07:53:46.432Z,95927.71
2023-03-11T07:55:30.557Z,95928.72
2023-03-11T07:57:05.103Z,95925.38
2023-03-11T07:58:36.676Z,95937.80
2023-03-11T08:00:20.303Z,95936.12
2023-03-11T08:02:08.284Z,95944.92
2023-03-11T08:03:52.189Z,95948.47
2023-03-11T08:05:26.723Z,95946.27
2023-03-11T08:06:58.984Z,95949.73
2023-03-11T08:08:38.105Z,95954.35
2023-03-11T08:10:10.400Z,95954.44
2023-03-11T08:11:38.309Z,95956.25
2023-03-11T08:13:13.821Z,95957.52
2023-03-11T08:14:48.339Z,95959.72
2023-03-11T08:16:20.548Z,95962.24
2023-03-11T08:18:03.962Z,95956.84
2023-03-11T08:19:35.984Z,95968.83
2023-03-11T08:21:06.751Z,95971.85
2023-03-11T08:22:58.141Z,95967.45
2023-03-11T08:24:41.901Z,95979.61
2023-03-11T08:26:25.811Z,95980.97
2023-03-11T08:28:09.362Z,95987.55
2023-03-11T08:29:32.489Z,95982.86
2023-03-11T08:31:14.227Z,95984.52
2023-03-11T08:32:44.288Z,95995.58
2023-03-11T08:34:27.927Z,95995.03
2023-03-11T08:36:18.607Z,95996.63
2023-03-11T08:37:39.371Z,96005.55
2023-03-11T08:39:23.728Z,96002.27
2023-03-11T08:41:08.501Z,96007.14
2023-03-11T08:42:53.468Z,96005.42
2023-03-11T08:44:37.156Z,96011.30
2023-03-11T08:46:21.861Z,96013.26
2023-03-11T08:48:01.713Z,96014.09
2023-03-11T08:49:45.919Z,96017.95
2023-03-11T08:51:26.129Z,96025.67
2023-03-11T08:53:18.477Z,96025.35
2023-03-11T08:55:00.149Z,96033.61
2023-03-11T08:56:49.621Z,96031.52
2023-03-11T08:58:17.931Z,96036.67
2023-03-11T08:59:38.381Z,96035.02
2023-03-11T09:01:09.254Z,96037.73
2023-03-11T09:02:48.638Z,96044.56
2023-03-11T09:04:40.820Z,96043.94
2023-03-11T09:06:24.758Z,96046.99
2023-03-11T09:08:05.725Z,96049.25
2023-03-11T09:09:37.706Z,96054.93
2023-03-11T09:11:21.929Z,96057.80
2023-03-11T09:12:53.912Z,96063.96
2023-03-11T09:14:25.395Z,96073.97
2023-03-11T09:16:00.812Z,96080.42
2023-03-11T09:17:34.991Z,96082.73
2023-03-11T09:19:06.266Z,96088.90
2023-03-11T09:20:51.220Z,96096.81
2023-03-11T09:22:30.924Z,96104.69
2023-03-11T09:24:03.529Z,96113.21
2023-03-11T09:25:47.157Z,96112.61
2023-03-11T09:27:27.876Z,96120.46
2023-03-11T09:28:59.750Z,96123.75
2023-03-11T09:30:31.975Z,96128.63
2023-03-11T09:32:11.094Z,96135.94
2023-03-11T09:33:54.922Z,96137.11
2023-03-11T09:35:26.963Z,96147.20
2023-03-11T09:36:59.232Z,96146.32
2023-03-11T09:38:34.013Z,96149.84
2023-03-11T09:40:17.730Z,96153.25
2023-03-11T09:42:01.517Z,96156.88
2023-03-11T09:43:35.326Z,96156.14
2023-03-11T09:45:19.175Z,96154.05
2023-03-11T09:47:03.348Z,96156.78
2023-03-11T09:48:42.462Z,96162.92
2023-03-11T09:50:06.284Z,96160.27
2023-03-11T09:51:38.238Z,96169.95
2023-03-11T09:53:19.633Z,96166.20
2023-03-11T09:54:53.851Z,96176.88
2023-03-11T09:56:28.278Z,96183.67
2023-03-11T09:58:02.702Z,96195.92
2023-03-11T09:59:34.802Z,96195.64
2023-03-11T10:01:07.175Z,96203.27
2023-03-11T10:02:46.832Z,96208.88
2023-03-11T10:04:26.025Z,96210.23
2023-03-11T10:05:58.414Z,96213.97
2023-03-11T10:07:22.801Z,96222.55
2023-03-11T10:09:04.285Z,96224.75
2023-03-11T10:10:43.001Z,96236.00
2023-03-11T10:12:06.095Z,96237.48
2023-03-11T10:13:31.379Z,96242.69
2023-03-11T10:15:15.598Z,96247.25
2023-03-11T10:16:41.493Z,96246.15
2023-03-11T10:18:24.870Z,96255.24
2023-03-11T10:20:08.915Z,96258.44
2023-03-11T10:21:52.241Z,96263.09
2023-03-11T10:23:36.421Z,96274.09
2023-03-11T10:24:57.345Z,96274.34
2023-03-11T10:26:32.104Z,96279.58
2023-03-11T10:28:16.631Z,96287.02
2023-03-11T10:29:39.072Z,96291.34
2023-03-11T10:31:23.131Z,96291.96
2023-03-11T10:32:55.687Z,96294.55
2023-03-11T10:34:39.231Z,96300.77
2023-03-11T10:36:23.892Z,96308.40
2023-03-11T10:38:03.803Z,96314.69
2023-03-11T10:39:38.735Z,96322.91
2023-03-11T10:41:22.315Z,96319.45
2023-03-11T10:43:11.355Z,96325.23
2023-03-11T10:44:41.251Z,96332.85
2023-03-11T10:46:24.940Z,96337.33
2023-03-11T10:48:09.143Z,96343.39
2023-03-11T10:49:43.683Z,96344.42
2023-03-11T10:51:31.488Z,96349.36
2023-03-11T10:53:03.870Z,96353.48
2023-03-11T10:54:47.510Z,96357.02
2023-03-11T10:56:31.410Z,96361.45
2023-03-11T10:58:14.934Z,96367.79
2023-03-11T10:59:59.209Z,96372.89
2023-03-11T11:01:31.135Z,96367.44
2023-03-11T11:03:03.026Z,96375.08
2023-03-11T11:04:34.525Z,96378.13
2023-03-11T11:06:18.554Z,96385.79
2023-03-11T11:07:58.111Z,96388.22
2023-03-11T11:09:31.720Z,96396.02
2023-03-11T11:11:15.386Z,96402.52
2023-03-11T11:13:08.259Z,96402.54
2023-03-11T11:14:52.158Z,96415.11
2023-03-11T11:16:14.613Z,96418.08
2023-03-11T11:18:02.918Z,96418.44
2023-03-11T11:19:46.633Z,96419.81
2023-03-11T11:21:30.491Z,96429.88
2023-03-11T11:23:14.845Z,96430.48
2023-03-11T11:25:02.601Z,96433.67
2023-03-11T11:26:43.130Z,96440.13
2023-03-11T11:28:14.875Z,96440.42
2023-03-11T11:30:07.173Z,96444.14
2023-03-11T11:31:51.273Z,96431.66
2023-03-11T11:33:13.951Z,96451.38
2023-03-11T11:34:46.371Z,96457.89
2023-03-11T11:36:29.890Z,96455.96
2023-03-11T11:38:11.347Z,96470.39
2023-03-11T11:39:56.268Z,96469.95
2023-03-11T11:41:32.557Z,96465.48
2023-03-11T11:43:04.088Z,96475.00
2023-03-11T11:44:50.337Z,96458.85
2023-03-11T11:46:34.024Z,96480.11
2023-03-11T11:48:08.640Z,96486.64
2023-03-11T11:49:52.061Z,96486.73
2023-03-11T11:51:37.667Z,96490.73
2023-03-11T11:53:12.833Z,96504.03
2023-03-11T11:54:58.735Z,96500.02
2023-03-11T11:56:42.141Z,96484.96
2023-03-11T11:58:26.190Z,96503.67
2023-03-11T12:00:09.543Z,96506.88
2023-03-11T12:01:34.718Z,96516.09
2023-03-11T12:03:00.506Z,96515.13
2023-03-11T12:04:32.387Z,96527.07
2023-03-11T12:06:16.345Z,96525.48
2023-03-11T12:07:44.327Z,96531.27
2023-03-11T12:09:14.898Z,96534.66
2023-03-11T12:10:47.035Z,96537.06
2023-03-11T12:12:19.272Z,96544.04
2023-03-11T12:13:54.309Z,96547.07
2023-03-11T12:15:17.019Z,96546.41
2023-03-11T12:16:56.286Z,96549.64
2023-03-11T12:18:39.645Z,96555.69
2023-03-11T12:20:23.869Z,96558.52
2023-03-11T12:22:11.703Z,96566.48
2023-03-11T12:23:51.876Z,96578.25
2023-03-11T12:25:33.350Z,96579.63
2023-03-11T12:27:18.163Z,96586.77
2023-03-11T12:28:52.863Z,96595.10
2023-03-11T12:30:38.162Z,96589.60
2023-03-11T12:32:30.344Z,96597.08
2023-03-11T12:34:14.480Z,96603.35
2023-03-11T12:35:59.210Z,96609.86
2023-03-11T12:37:33.254Z,96618.39
2023-03-11T12:39:17.319Z,96614.17
2023-03-11T12:41:01.671Z,96633.88
2023-03-11T12:42:45.243Z,96634.44
2023-03-11T12:44:16.538Z,96622.67
2023-03-11T12:45:57.437Z,96643.50
2023-03-11T12:47:41.109Z,96648.67
2023-03-11T12:49:26.215Z,96654.02
2023-03-11T12:50:48.730Z,96647.08
2023-03-11T12:52:37.288Z,96661.04
2023-03-11T12:54:14.163Z,96664.13
2023-03-11T12:56:06.474Z,96667.36
2023-03-11T12:57:38.467Z,96674.27
2023-03-11T12:59:22.632Z,96670.54
2023-03-11T13:01:07.338Z,96681.23
2023-03-11T13:02:48.937Z,96693.17
2023-03-11T13:04:32.753Z,96697.25
2023-03-11T13:06:17.105Z,96706.32
2023-03-11T13:07:47.557Z,96710.38
2023-03-11T13:09:21.493Z,96718.34
2023-03-11T13:10:53.669Z,96720.45
2023-03-11T13:12:37.045Z,96727.64
2023-03-11T13:14:20.897Z,96731.85
2023-03-11T13:16:00.492Z,96736.19
2023-03-11T13:17:43.715Z,96738.02
2023-03-11T13:19:27.224Z,96741.23
2023-03-11T13:21:11.496Z,96737.92
2023-03-11T13:22:53.864Z,96746.63
2023-03-11T13:24:26.896Z,96747.95
2023-03-11T13:25:49.499Z,96732.05
2023-03-11T13:27:32.578Z,96760.31
2023-03-11T13:29:04.809Z,96766.95
2023-03-11T13:30:32.788Z,96765.88
2023-03-11T13:32:16.754Z,96771.36
2023-03-11T13:33:39.419Z,96779.53
2023-03-11T13:35:23.993Z,96783.36
2023-03-11T13:36:56.374Z,96787.52
2023-03-11T13:38:19.539Z,96796.98
2023-03-11T13:40:03.573Z,96793.66
2023-03-11T13:41:46.907Z,96800.54
2023-03-11T13:43:26.223Z,96803.45
2023-03-11T13:45:10.823Z,96807.48
2023-03-11T13:46:54.811Z,96813.52
2023-03-11T13:48:23.450Z,96816.70
2023-03-11T13:49:57.650Z,96821.14
2023-03-11T13:51:22.842Z,96825.42
2023-03-11T13:53:01.974Z,96826.59
2023-03-11T13:54:45.190Z,96834.27
2023-03-11T13:56:39.203Z,96838.21
2023-03-11T13:58:22.749Z,96843.80
2023-03-11T14:00:10.583Z,96845.09
2023-03-11T14:01:54.206Z,96847.91
2023-03-11T14:03:26.496Z,96852.36
2023-03-11T14:05:01.259Z,96852.09
2023-03-11T14:06:44.086Z,96858.69
2023-03-11T14:08:37.183Z,96864.70
2023-03-11T14:10:11.553Z,96871.30
2023-03-11T14:12:03.612Z,96872.46
2023-03-11T14:13:40.675Z,96878.17
2023-03-11T14:15:20.058Z,96879.91
2023-03-11T14:17:05.425Z,96886.20
2023-03-11T14:18:34.891Z,96892.84
2023-03-11T14:20:15.656Z,96898.41
2023-03-11T14:21:49.069Z,96904.19
2023-03-11T14:23:24.417Z,96904.13
2023-03-11T14:25:04.399Z,96910.52
2023-03-11T14:26:38.551Z,96913.52
2023-03-11T14:28:02.220Z,96923.30
2023-03-11T14:29:34.373Z,96921.84
2023-03-11T14:31:18.299Z,96926.52
2023-03-11T14:33:02.311Z,96931.85
2023-03-11T14:34:34.492Z,96931.58
2023-03-11T14:36:06.624Z,96933.23
2023-03-11T14:37:38.200Z,96942.74
2023-03-11T14:39:22.310Z,96943.71
2023-03-11T14:41:11.205Z,96947.36
2023-03-11T14:42:55.112Z,96952.33
2023-03-11T14:44:48.345Z,96951.45
2023-03-11T14:46:20.503Z,96962.09
2023-03-11T14:48:04.551Z,96954.23
2023-03-11T14:49:24.700Z,96962.52
2023-03-11T14:50:48.589Z,96961.92
2023-03-11T14:52:32.467Z,96969.67
2023-03-11T14:54:16.393Z,96967.74
2023-03-11T14:56:06.073Z,96976.02
2023-03-11T14:57:59.158Z,96976.50
2023-03-11T14:59:34.385Z,96977.02
2023-03-11T15:01:09.133Z,96973.13
2023-03-11T15:02:48.289Z,96987.17
2023-03-11T15:04:23.079Z,96986.15
2023-03-11T15:06:02.714Z,96984.96
2023-03-11T15:07:22.606Z,96994.55
2023-03-11T15:09:06.378Z,97000.57
2023-03-11T15:10:38.038Z,96989.62
2023-03-11T15:12:19.364Z,97006.89
2023-03-11T15:14:06.805Z,97015.93
2023-03-11T15:15:50.314Z,97020.17
2023-03-11T15:17:39.899Z,97015.86
2023-03-11T15:19:04.261Z,97022.06
2023-03-11T15:20:27.255Z,97024.73
2023-03-11T15:22:06.452Z,97029.23
2023-03-11T15:23:38.184Z,97038.19
2023-03-11T15:25:19.825Z,97040.37
2023-03-11T15:27:00.855Z,97039.05
2023-03-11T15:28:33.641Z,97049.73
2023-03-11T15:30:06.436Z,97053.40
2023-03-11T15:31:45.741Z,97053.13
2023-03-11T15:33:39.291Z,97052.21
2023-03-11T15:35:11.730Z,97057.05
2023-03-11T15:37:06.440Z,97058.34
2023-03-11T15:38:59.161Z,97059.76
2023-03-11T15:40:45.688Z,97049.55
2023-03-11T15:42:17.907Z,97052.02
2023-03-11T15:44:11.252Z,97059.80
2023-03-11T15:45:54.901Z,97065.16
2023-03-11T15:47:29.515Z,97064.11
2023-03-11T15:49:13.586Z,97075.19
2023-03-11T15:50:54.149Z,97058.95
2023-03-11T15:52:38.077Z,97076.41
2023-03-11T15:54:10.527Z,97090.96
2023-03-11T15:58:05.227Z,97095.02
2023-03-11T15:59:48.872Z,97098.27
2023-03-11T16:01:34.105Z,97105.26
2023-03-11T16:03:17.556Z,97109.72
2023-03-11T16:05:10.422Z,97116.90
2023-03-11T16:07:07.063Z,97120.78
2023-03-11T16:08:41.181Z,97121.49
2023-03-11T16:10:13.419Z,97126.30
2023-03-11T16:11:57.322Z,97131.83
2023-03-11T16:13:40.796Z,97131.31
2023-03-11T16:15:24.021Z,97136.83
2023-03-11T16:17:08.077Z,97140.84
2023-03-11T16:18:40.009Z,97143.27
2023-03-11T16:20:12.916Z,97153.04
2023-03-11T16:22:05.214Z,97155.17
2023-03-11T16:23:25.805Z,97157.63
2023-03-11T16:25:19.240Z,97159.23
2023-03-11T16:27:03.116Z,97168.13
2023-03-11T16:28:37.460Z,97171.31
2023-03-11T16:30:11.832Z,97175.40
2023-03-11T16:31:53.471Z,97180.13
2023-03-11T16:33:33.033Z,97186.09
2023-03-11T16:35:18.573Z,97181.69
2023-03-11T16:36:53.501Z,97186.11
2023-03-11T16:38:26.121Z,97190.54
2023-03-11T16:39:58.680Z,97195.14
2023-03-11T16:41:38.002Z,97198.11
2023-03-11T16:43:22.126Z,97206.64
2023-03-11T16:45:15.122Z,97209.87
2023-03-11T16:46:37.746Z,97214.84
2023-03-11T16:48:02.839Z,97192.30
2023-03-11T16:49:34.480Z,97215.83
2023-03-11T16:51:07.174Z,97221.38
2023-03-11T16:52:34.823Z,97224.40
2023-03-11T16:54:09.704Z,97194.54
2023-03-11T16:55:37.485Z,97229.45
2023-03-11T16:57:21.869Z,97232.66
2023-03-11T16:58:54.191Z,97236.24
2023-03-11T17:00:37.475Z,97239.39
2023-03-11T17:02:12.391Z,97248.55
2023-03-11T17:03:55.552Z,97248.91
2023-03-11T17:05:29.463Z,97259.58
2023-03-11T17:07:09.127Z,97262.44
2023-03-11T17:08:53.445Z,97266.13
2023-03-11T17:10:38.561Z,97232.16
2023-03-11T17:12:24.353Z,97275.49
2023-03-11T17:14:03.299Z,97278.77
2023-03-11T17:15:54.220Z,97286.19
2023-03-11T17:17:24.740Z,97284.27
2023-03-11T17:19:08.788Z,97290.52
2023-03-11T17:20:55.335Z,97290.85
2023-03-11T17:22:38.943Z,97293.60
2023-03-11T17:24:09.146Z,97292.16
2023-03-11T17:25:31.228Z,97294.68
2023-03-11T17:27:15.430Z,97294.88
2023-03-11T17:28:44.990Z,97302.88
2023-03-11T17:30:36.451Z,97282.10
2023-03-11T17:32:20.872Z,97308.34
2023-03-11T17:34:04.677Z,97308.52
2023-03-11T17:35:53.356Z,97313.23
2023-03-11T17:37:19.235Z,97308.98
2023-03-11T17:38:46.529Z,97317.16
2023-03-11T17:40:18.765Z,97316.27
2023-03-11T17:41:57.306Z,97317.72
2023-03-11T17:43:36.627Z,97322.83
2023-03-11T17:45:20.618Z,97327.27
2023-03-11T17:46:56.022Z,97327.43
2023-03-11T17:48:28.078Z,97335.69
2023-03-11T17:50:12.282Z,97344.50
2023-03-11T17:52:02.019Z,97341.83
2023-03-11T17:53:21.950Z,97334.17
2023-03-11T17:55:05.212Z,97354.19
2023-03-11T17:56:49.002Z,97357.53
2023-03-11T17:58:21.204Z,97360.68
2023-03-11T18:00:10.138Z,97363.50
2023-03-11T18:01:45.308Z,97367.42
2023-03-11T18:03:08.992Z,97364.54
2023-03-11T18:04:58.299Z,97369.28
2023-03-11T18:06:30.116Z,97367.35
2023-03-11T18:08:02.353Z,97369.60
2023-03-11T18:09:41.646Z,97379.39
2023-03-11T18:11:18.788Z,97382.19
2023-03-11T18:12:51.437Z,97385.27
2023-03-11T18:14:18.840Z,97388.67
2023-03-11T18:16:02.343Z,97393.59
2023-03-11T18:17:30.000Z,97392.97
2023-03-11T18:18:58.078Z,97396.63
2023-03-11T18:20:51.147Z,97400.36
2023-03-11T18:22:35.457Z,97405.84
2023-03-11T18:24:19.950Z,97409.90
2023-03-11T18:25:45.061Z,97410.23
2023-03-11T18:27:28.188Z,97411.85
2023-03-11T18:29:24.251Z,97415.33
2023-03-11T18:31:08.636Z,97413.77
2023-03-11T18:32:55.381Z,97424.68
2023-03-11T18:34:29.996Z,97410.19
2023-03-11T18:36:02.725Z,97431.51
2023-03-11T18:37:34.477Z,97432.41
2023-03-11T18:39:11.553Z,97434.33
2023-03-11T18:40:47.615Z,97436.45
2023-03-11T18:42:21.955Z,97438.30
2023-03-11T18:44:05.592Z,97435.61
2023-03-11T18:45:28.088Z,97442.69
2023-03-11T18:47:09.182Z,97437.19
2023-03-11T18:48:40.735Z,97446.06
2023-03-11T18:50:13.282Z,97442.33
2023-03-11T18:51:56.996Z,97446.85
2023-03-11T18:53:36.396Z,97452.17
2023-03-11T18:54:57.724Z,97449.90
2023-03-11T18:56:30.473Z,97453.15
2023-03-11T18:58:15.520Z,97455.88
2023-03-11T19:00:04.248Z,97457.69
2023-03-11T19:01:34.600Z,97458.84
2023-03-11T19:03:09.845Z,97453.67
2023-03-11T19:04:54.360Z,97460.89
2023-03-11T19:06:17.350Z,97462.45
2023-03-11T19:07:40.281Z,97462.80
2023-03-11T19:09:05.970Z,97461.23
2023-03-11T19:10:49.838Z,97468.59
2023-03-11T19:12:22.873Z,97469.57
2023-03-11T19:13:47.682Z,97470.84
2023-03-11T19:15:22.531Z,97473.87
2023-03-11T19:16:54.873Z,97474.98
2023-03-11T19:18:32.805Z,97470.02
2023-03-11T19:20:03.529Z,97479.67
2023-03-11T19:21:28.021Z,97478.38
2023-03-11T19:22:59.712Z,97465.27
2023-03-11T19:24:29.788Z,97485.02